Weather observations for the past three days for
Takotna, Tatalina LRRS Airport
| Date | Time (akdt) | Wind (mph) | Vis. (mi.) | Weather | Sky Cond. | Temperature (ºF) | Relative Humidity | Wind Chill (°F) | Heat Index (°F) | Pressure | Precipitation (in) | ||||||
|---|---|---|---|---|---|---|---|---|---|---|---|---|---|---|---|---|---|
| Air | Dwpt | 6 hour | altimeter (in) | sea level (mb) | 1 hr | 3 hr | 6 hr | ||||||||||
| Max. | Min. | ||||||||||||||||
| 02 | 13:55 | NE 15 G 23 | 10.00 | Light Rain | OVC009 | 35.6 | 35.6 | 100% | 27 | 29.82 | 1011.0 | ||||||
| 02 | 12:55 | NE 15 G 20 | 10.00 | Light Rain | OVC008 | 35.1 | 34.2 | 97% | 26 | 29.8 | 1010.4 | 0.01 | 0.01 | ||||
| 02 | 11:55 | NE 13 | 8.00 | Light Showers Snow | OVC008 | 33.8 | 33.8 | 100% | 25 | 29.77 | 1009.4 | ||||||
| 02 | 10:55 | NE 12 | 10.00 | Overcast | OVC008 | 33.8 | 33.8 | 100% | 26 | 29.74 | 1008.1 | ||||||
| 02 | 09:55 | NE 13 | 10.00 | Light Rain | OVC005 | 34.3 | 34.2 | 34.9 | 33.8 | 99% | 26 | 29.7 | 1006.9 | ||||
| 02 | 08:55 | NE 10 | 10.00 | Light Drizzle | OVC007 | 35.6 | 33.8 | 93% | 29 | 29.66 | 1005.7 | ||||||
| 02 | 07:55 | NE 17 | 10.00 | Overcast | OVC008 | 33.8 | 33.8 | 100% | 24 | 29.64 | 1004.9 | ||||||
| 02 | 06:55 | NE 15 | 10.00 | Overcast | OVC005 | 34.3 | 34.2 | 99% | 25 | 29.63 | 1004.3 | ||||||
| 02 | 05:55 | NE 12 | 10.00 | Overcast | OVC006 | 33.8 | 33.8 | 100% | 26 | 29.59 | 1003.2 | ||||||
| 02 | 04:55 | NE 14 | 10.00 | Light Showers Rain | OVC005 | 33.8 | 33.8 | 100% | 25 | 29.57 | 1002.2 | ||||||
| 02 | 03:55 | NE 13 | 10.00 | Light Rain | OVC004 | 34 | 34 | 37 | 33.8 | 100% | 26 | 29.54 | 1001.3 | 0.01 | 0.05 | ||
| 02 | 02:55 | NE 14 | 10.00 | Light Showers Rain | OVC005 | 33.8 | 33.8 | 100% | 25 | 29.52 | 1000.3 | ||||||
| 02 | 01:55 | NE 13 | 8.00 | Light Drizzle | OVC004 | 35.6 | 35.6 | 100% | 28 | 29.49 | 999.4 | ||||||
| 01 | 23:55 | E 7 | 7.00 | Light Rain | OVC008 | 35.6 | 35.6 | 100% | 31 | 29.44 | 997.7 | 0.01 | |||||
| 01 | 22:55 | Vrbl 6 | 8.00 | Light Rain | OVC004 | 35.6 | 35.6 | 100% | 31 | 29.42 | 996.9 | 0.02 | |||||
| 01 | 21:55 | Vrbl 6 | 10.00 | Light Rain | OVC009 | 36.9 | 36.3 | 42.8 | 37 | 98% | 33 | 29.4 | 996.3 | 0.02 | 0.07 | ||
| 01 | 20:55 | E 1 | 10.00 | Light Rain | OVC012 | 37.4 | 37.4 | 100% | 29.38 | 995.8 | 0.02 | ||||||
| 01 | 19:55 | Calm | 10.00 | Light Rain | OVC013 | 39.2 | 37.4 | 93% | 29.37 | 995.4 | 0.02 | ||||||
| 01 | 18:55 | E 5 | 10.00 | Light Rain | OVC014 | 38.5 | 36.9 | 94% | 36 | 29.36 | 995.3 | 0.02 | 0.01 | ||||
| 01 | 17:55 | E 6 | 10.00 | Light Rain | OVC015 | 41 | 37.4 | 87% | 38 | 29.35 | 994.9 | ||||||
| 01 | 16:55 | E 7 | 10.00 | Light Rain | OVC017 | 41 | 35.6 | 81% | 37 | 29.35 | 994.8 | ||||||
| 01 | 15:55 | Vrbl 5 | 10.00 | Light Showers Rain | OVC033 | 42.6 | 33.8 | 47.7 | 40.8 | 71% | 40 | 29.36 | 994.9 | ||||
| 01 | 14:55 | NE 10 | 10.00 | Mostly Cloudy | BKN050 | 46.4 | 26.6 | 46% | 42 | 29.35 | 994.7 | ||||||
| 01 | 13:55 | E 5 | 10.00 | Overcast | OVC050 | 44.6 | 30.2 | 57% | 43 | 29.35 | 994.8 | ||||||
| 01 | 12:55 | NE 5 | 10.00 | Light Showers Rain | SCT029 OVC060 | 44.1 | 32.5 | 64% | 42 | 29.38 | 995.4 | ||||||
| 01 | 11:55 | NE 10 | 10.00 | Overcast | OVC045 | 44.6 | 26.6 | 49% | 40 | 29.37 | 995.3 | ||||||
| 01 | 10:55 | E 9 | 10.00 | Mostly Cloudy | BKN075 | 44.6 | 26.6 | 49% | 40 | 29.37 | 995.1 | ||||||
| 01 | 09:55 | NE 9 | 10.00 | Overcast | OVC070 | 41.4 | 27.7 | 40.8 | 34.9 | 58% | 36 | 29.38 | 995.6 | ||||
| 01 | 08:55 | E 9 | 10.00 | Mostly Cloudy | BKN090 | 39.2 | 28.4 | 65% | 34 | 29.4 | 996.4 | ||||||
| 01 | 07:55 | E 6 | 10.00 | Overcast | OVC090 | 37.4 | 28.4 | 70% | 33 | 29.42 | 997.2 | ||||||
| 01 | 06:55 | E 2 | 10.00 | Overcast | OVC085 | 36.5 | 29.3 | 75% | 29.44 | 998.0 | |||||||
| 01 | 05:55 | E 2 | 10.00 | Overcast | OVC075 | 35.6 | 30.2 | 81% | 29.47 | 999.0 | |||||||
| 01 | 04:55 | Vrbl 7 | 10.00 | Overcast | BKN070 OVC100 | 37.4 | 28.4 | 70% | 33 | 29.48 | 999.4 | ||||||
| 01 | 03:55 | Vrbl 6 | 10.00 | Overcast | OVC065 | 38.1 | 28.2 | 41.2 | 34.5 | 68% | 34 | 29.5 | 1000.1 | 0.01 | |||
| 01 | 02:55 | Vrbl 7 | 10.00 | Mostly Cloudy | BKN070 | 37.4 | 32 | 81% | 33 | 29.51 | 1000.6 | ||||||
| 01 | 01:55 | Vrbl 3 | 10.00 | Mostly Cloudy | BKN065 | 35.6 | 35.6 | 100% | 29.53 | 1001.4 | |||||||
| 01 | 00:55 | Vrbl 5 | 10.00 | Mostly Cloudy | FEW027 BKN050 BKN110 | 39.2 | 35.8 | 88% | 36 | 29.53 | 1001.1 | 0.01 | 0.01 | ||||
| 30 | 23:55 | Calm | 10.00 | Light Showers Rain | OVC041 | 39.2 | 37.4 | 93% | 29.55 | 1001.5 | |||||||
| 30 | 22:55 | Vrbl 2 | 10.00 | Overcast | OVC032 | 39.2 | 35.6 | 87% | 29.55 | 1001.8 | |||||||
| 30 | 21:55 | Vrbl 3 | 10.00 | Overcast | OVC032 | 38.1 | 36.7 | 37.9 | 34 | 95% | 29.55 | 1001.8 | 0.02 | ||||
| 30 | 20:55 | Vrbl 3 | 10.00 | Light Rain | OVC024 | 37.4 | 37.4 | 100% | 29.57 | 1002.4 | 0.02 | ||||||
| 30 | 19:55 | E 5 | 10.00 | Light Showers Rain | OVC019 | 37.4 | 37.4 | 100% | 34 | 29.59 | 1003.1 | ||||||
| 30 | 18:55 | E 3 | 10.00 | Light Showers Rain | FEW015 OVC023 | 37.2 | 36.1 | 96% | 29.6 | 1003.6 | |||||||
| 30 | 17:55 | E 6 | 10.00 | Light Showers Rain | OVC033 | 37.4 | 35.6 | 93% | 33 | 29.61 | 1004.1 | ||||||
| 30 | 16:55 | E 3 | 10.00 | Overcast | OVC027 | 35.6 | 35.6 | 100% | 29.64 | 1004.8 | |||||||
| 30 | 14:55 | Vrbl 6 | 1.00 | Light Snow | BKN003 OVC011 | 32 | 32 | 100% | 27 | 29.68 | 1006.4 | 0.04 | |||||
| 30 | 13:55 | E 9 | 1.25 | Light Snow | BKN003 OVC015 | 32 | 32 | 100% | 25 | 29.69 | 1006.7 | 0.02 | |||||
| 30 | 12:55 | NE 9 | 3.00 | Light Showers Rain Snow | OVC020 | 34.3 | 29.1 | 81% | 28 | 29.71 | 1007.2 | ||||||
| 30 | 11:55 | Vrbl 5 | 10.00 | Overcast | OVC031 | 35.6 | 24.8 | 65% | 32 | 29.71 | 1007.3 | ||||||
| 30 | 10:55 | E 5 | 10.00 | Overcast | OVC036 | 35.6 | 23 | 60% | 32 | 29.72 | 1007.5 | ||||||
| 30 | 09:55 | E 6 | 10.00 | Mostly Cloudy | BKN070 | 34.7 | 21.6 | 36.9 | 30.4 | 59% | 30 | 29.73 | 1007.8 | ||||
| 30 | 08:55 | E 8 | 10.00 | Mostly Cloudy | BKN075 | 32 | 23 | 69% | 25 | 29.74 | 1008.0 | ||||||
| 30 | 07:55 | E 6 | 10.00 | Overcast | OVC070 | 32 | 24.8 | 75% | 27 | 29.76 | 1008.7 | ||||||
| 30 | 06:55 | E 5 | 10.00 | Mostly Cloudy | BKN049 | 32.4 | 22.8 | 68% | 28 | 29.77 | 1009.4 | ||||||
| 30 | 05:55 | NE 5 | 10.00 | Mostly Cloudy | BKN044 | 32 | 23 | 69% | 28 | 29.8 | 1010.3 | ||||||
| 30 | 04:55 | E 5 | 10.00 | Mostly Cloudy | BKN055 BKN140 | 32 | 24.8 | 75% | 28 | 29.81 | 1010.6 | ||||||
| 30 | 03:55 | E 2 | 10.00 | A Few Clouds | FEW047 | 36.3 | 22.8 | 39.2 | 35.1 | 58% | 29.82 | 1011.0 | |||||
| 30 | 02:55 | Calm | 10.00 | A Few Clouds | FEW065 | 37.4 | 24.8 | 60% | 29.84 | 1011.5 | |||||||
| 30 | 01:55 | Calm | 10.00 | Mostly Cloudy | BKN060 | 37.4 | 24.8 | 60% | 29.85 | 1011.6 | |||||||
| 30 | 00:55 | Vrbl 2 | 10.00 | Partly Cloudy | SCT055 | 37 | 25.3 | 63% | 29.85 | 1011.7 | |||||||
| 29 | 23:55 | Vrbl 1 | 10.00 | Fair | CLR | 37.4 | 26.6 | 65% | 29.85 | 1011.8 | |||||||
| 29 | 22:55 | Vrbl 3 | 10.00 | Fair | CLR | 37.4 | 24.8 | 60% | 29.85 | 1012.0 | |||||||
| 29 | 21:55 | Vrbl 6 | 10.00 | A Few Clouds | FEW050 | 39.2 | 25.3 | 42.8 | 37.4 | 58% | 36 | 29.85 | 1011.7 | ||||
| 29 | 20:55 | NE 10 | 10.00 | A Few Clouds | FEW065 | 41 | 24.8 | 53% | 35 | 29.85 | 1011.7 | ||||||
| 29 | 19:55 | NE 13 | 10.00 | A Few Clouds | FEW041 | 41 | 24.8 | 53% | 34 | 29.85 | 1011.9 | ||||||
| 29 | 18:55 | NE 12 | 10.00 | Fair | CLR | 40.6 | 27.3 | 59% | 34 | 29.86 | 1012.3 | ||||||
| 29 | 17:55 | NE 13 | 10.00 | Mostly Cloudy | BKN044 | 42.8 | 24.8 | 49% | 37 | 29.87 | 1012.3 | ||||||
| 29 | 16:55 | NE 13 | 10.00 | Mostly Cloudy | BKN043 | 42.8 | 26.6 | 53% | 37 | 29.88 | 1012.8 | ||||||
| 29 | 15:55 | Vrbl 6 | 10.00 | Light Showers Rain | BKN022 | 37.6 | 31.1 | 43.7 | 37.4 | 78% | 34 | 29.9 | 1013.6 | ||||
| 29 | 14:55 | Vrbl 3 | 10.00 | Light Showers Rain | BKN030 | 39.2 | 30.2 | 70% | 29.9 | 1013.8 | |||||||
| Date | Time (akdt) | Wind (mph) | Vis. (mi.) | Weather | Sky Cond. | Air | Dwpt | Max. | Min. | Relative Humidity | Wind Chill (°F) | Heat Index (°F) | altimeter (in) | sea level (mb) | 1 hr | 3 hr | 6 hr |
| 6 hour | |||||||||||||||||
| Temperature (ºF) | Pressure | Precipitation (in) | |||||||||||||||